Airfield :
LOGIN :

Register | Disclaimer

   EN    FR    IT 

 










Legend :    VFR   Marginal VFR   IFR   Intensive IFR   Very Intensive IFR
Visi :
Ceiling :
>= 8 km
>= 3000ft
5 to 8 km
1000 to 3000 ft
1500m to 5 km
500 to 1000 ft
800 to 1500m
200 to 500 ft
< 800m
< 200 ft
Symbols :   Thunderstorms  Fog  Heavy snow  Heavy precipitations  Wind > 20 kt
SIGMETs :     Misc.  Thunderstorms  Icing  Turbulence  Mountain Waves  Volcanic Ashes







- Airport Elevation : 218 ft
- IATA code : LBG
- Download approach charts


LFPB - Paris / Le Bourget

CURRENT METAR :
  • 182100Z AUTO 25009KT 9999 FEW024 SCT045 OVC086 08/05 Q1022 BECMG BKN014

EXPIRED METARs :
  • 182030Z AUTO 25010KT 9999 BKN042 BKN049 OVC090 08/05 Q1022 BECMG BKN014
  • 182000Z AUTO 24008KT 9999 SCT027 BKN043 BKN052 08/05 Q1022 NOSIG
  • 181930Z AUTO 24010KT 9999 BKN028 OVC034 09/06 Q1022 NOSIG
  • 181900Z AUTO 25010KT 210V270 9999 BKN029 OVC037 09/05 Q1023 NOSIG
  • 181830Z AUTO 25008KT 220V280 9999 OVC033 09/06 Q1023 NOSIG

TAF TAF LFPB
Valid from the 18 at 18:00 until the 19 at 18:00 UTC


181700Z 1818/1918 24010KT 9999 BKN035
BECMG 1822/1824 BKN014
PROB40
TEMPO 1900/1904 3500 -RADZ OVC006
BECMG 1905/1907 BKN020
BECMG 1910/1912 CAVOK
ATIS : +33 1 48 62 43 92
No reported NOTAMs for that airfield.
1 SIGMET reported for the Paris FIR (LFFF) :
 
Severe icing
LFFF SIGMET 1 VALID 182100/190100 LFPW
LFFF PARIS FIR/UIR SEV ICE OBS WI N5045 E00315 - N4930 E00600 - N4915 E00515 - N5000 E00300 FL080/220 MOV SE 20KT NC=



MET'MAP, your aeronautical weather chart ! - Copyright ORBIFLY December 2007 - Disclaimer

ORBIFLY MET'MAP TEAM :

Programming & Development : Alexandra Zaïnal
Concept & Development : Baudouin d'Aumeries
Co-Development & Prog : Marc-Olivier Méhu
Technical & hardware support : Manuel Goepfert

Contact : metmap@orbifly.com




SOURCES & CREDITS :

   NOAA